Time,TemperatureF,DewpointF,PressureIn,WindDirection,WindDirectionDegrees,WindSpeedMPH,WindSpeedGustMPH,Humidity,HourlyPrecipIn,Conditions,Clouds,dailyrainin,SoftwareType,DateUTC
2013-08-29 00:02:00,70.2,67.1,30.05,WNW,299,0.0,0.0,90,0.00,,,0.00,Wunderground v.1.15,2013-08-29 06:02:00,
2013-08-29 00:08:00,70.2,66.8,30.05,WNW,299,0.0,0.0,89,0.00,,,0.00,Wunderground v.1.15,2013-08-29 06:08:00,
2013-08-29 00:14:00,70.2,66.8,30.05,WNW,299,0.0,0.0,89,0.00,,,0.00,Wunderground v.1.15,2013-08-29 06:14:00,
2013-08-29 00:20:00,70.1,66.7,30.05,WNW,299,0.0,0.0,89,0.00,,,0.00,Wunderground v.1.15,2013-08-29 06:20:00,
2013-08-29 00:26:00,70.1,66.7,30.05,WNW,299,0.0,0.0,89,0.00,,,0.00,Wunderground v.1.15,2013-08-29 06:26:00,
2013-08-29 00:31:00,70.1,66.7,30.05,WNW,299,0.0,0.0,89,0.00,,,0.00,Wunderground v.1.15,2013-08-29 06:31:00,
2013-08-29 00:37:00,70.2,66.5,30.05,WNW,299,0.0,0.0,88,0.00,,,0.00,Wunderground v.1.15,2013-08-29 06:37:00,
2013-08-29 00:42:00,70.3,66.6,30.05,WNW,299,0.0,0.0,88,0.00,,,0.00,Wunderground v.1.15,2013-08-29 06:42:00,
2013-08-29 00:48:00,70.3,66.6,30.05,WNW,299,0.0,0.0,88,0.00,,,0.00,Wunderground v.1.15,2013-08-29 06:48:00,
2013-08-29 00:54:00,70.4,66.7,30.05,WNW,299,0.0,0.0,88,0.00,,,0.00,Wunderground v.1.15,2013-08-29 06:54:00,
2013-08-29 00:59:00,70.4,66.7,30.05,WNW,299,0.0,0.0,88,0.00,,,0.00,Wunderground v.1.15,2013-08-29 06:59:00,
2013-08-29 01:05:00,70.4,66.7,30.06,WNW,298,0.0,0.0,88,0.00,,,0.00,Wunderground v.1.15,2013-08-29 07:05:00,
2013-08-29 01:11:00,70.6,67.2,30.06,WNW,299,0.0,0.0,89,0.00,,,0.00,Wunderground v.1.15,2013-08-29 07:11:00,
2013-08-29 01:17:00,70.5,67.4,30.06,WNW,299,0.0,0.0,90,0.00,,,0.00,Wunderground v.1.15,2013-08-29 07:17:00,
2013-08-29 01:23:00,70.1,67.3,30.05,WNW,299,0.0,0.0,91,0.00,,,0.00,Wunderground v.1.15,2013-08-29 07:23:00,
2013-08-29 01:28:00,70.0,67.3,30.05,WNW,299,0.0,0.0,91,0.00,,,0.00,Wunderground v.1.15,2013-08-29 07:28:00,
2013-08-29 01:34:00,69.9,67.2,30.05,WNW,299,0.0,0.0,91,0.00,,,0.00,Wunderground v.1.15,2013-08-29 07:34:00,
2013-08-29 01:40:00,69.9,67.2,30.05,WNW,299,0.0,0.0,91,0.00,,,0.00,Wunderground v.1.15,2013-08-29 07:40:00,
2013-08-29 01:46:00,69.9,67.2,30.05,WNW,300,0.0,0.0,91,0.00,,,0.00,Wunderground v.1.15,2013-08-29 07:46:00,
2013-08-29 01:52:00,69.9,67.2,30.05,WNW,300,0.0,0.0,91,0.00,,,0.00,Wunderground v.1.15,2013-08-29 07:52:00,
2013-08-29 01:57:00,69.9,67.2,30.05,WNW,300,0.0,0.0,91,0.00,,,0.00,Wunderground v.1.15,2013-08-29 07:57:00,
2013-08-29 02:03:00,69.9,67.2,30.05,WNW,300,0.0,0.0,91,0.00,,,0.00,Wunderground v.1.15,2013-08-29 08:03:00,
2013-08-29 02:09:00,70.0,67.3,30.05,WNW,300,0.0,0.0,91,0.43,,,0.02,Wunderground v.1.15,2013-08-29 08:09:00,
2013-08-29 02:15:00,70.0,67.3,30.05,WNW,300,0.0,0.0,91,0.18,,,0.07,Wunderground v.1.15,2013-08-29 08:15:00,
2013-08-29 02:20:00,69.8,67.4,30.05,WNW,300,0.0,0.0,92,0.49,,,0.08,Wunderground v.1.15,2013-08-29 08:20:00,
2013-08-29 02:26:00,69.5,67.1,30.05,WNW,301,0.0,1.0,92,0.19,,,0.11,Wunderground v.1.15,2013-08-29 08:26:00,
2013-08-29 02:32:00,69.4,67.0,30.05,WNW,301,0.0,0.0,92,0.08,,,0.12,Wunderground v.1.15,2013-08-29 08:32:00,
2013-08-29 02:38:00,69.4,67.3,30.05,NW,304,0.0,0.0,93,0.08,,,0.12,Wunderground v.1.15,2013-08-29 08:38:00,
2013-08-29 02:44:00,69.1,67.0,30.05,NW,304,0.0,0.0,93,0.05,,,0.12,Wunderground v.1.15,2013-08-29 08:44:00,
2013-08-29 02:49:00,69.0,66.9,30.05,NW,304,0.0,0.0,93,0.00,,,0.12,Wunderground v.1.15,2013-08-29 08:49:00,
2013-08-29 02:55:00,68.9,66.8,30.05,NW,304,0.0,0.0,93,0.00,,,0.12,Wunderground v.1.15,2013-08-29 08:55:00,
2013-08-29 03:01:00,68.8,66.7,30.05,NW,304,0.0,0.0,93,0.00,,,0.12,Wunderground v.1.15,2013-08-29 09:01:00,
2013-08-29 03:06:00,68.8,66.7,30.06,NW,304,0.0,0.0,93,0.00,,,0.12,Wunderground v.1.15,2013-08-29 09:06:00,
2013-08-29 03:12:00,68.7,66.6,30.06,NW,304,0.0,0.0,93,0.00,,,0.12,Wunderground v.1.15,2013-08-29 09:12:00,
2013-08-29 03:18:00,68.7,66.6,30.05,NW,304,0.0,0.0,93,0.00,,,0.12,Wunderground v.1.15,2013-08-29 09:18:00,
2013-08-29 03:24:00,68.6,66.8,30.05,NW,304,0.0,0.0,94,0.00,,,0.12,Wunderground v.1.15,2013-08-29 09:24:00,
2013-08-29 03:30:00,68.5,66.4,30.05,NW,304,0.0,0.0,93,0.00,,,0.12,Wunderground v.1.15,2013-08-29 09:30:00,
2013-08-29 03:35:00,68.5,66.7,30.05,NW,304,0.0,0.0,94,0.00,,,0.12,Wunderground v.1.15,2013-08-29 09:35:00,
2013-08-29 03:41:00,68.5,66.7,30.06,NW,304,0.0,0.0,94,0.00,,,0.12,Wunderground v.1.15,2013-08-29 09:41:00,
2013-08-29 03:47:00,68.6,66.8,30.06,NW,304,0.0,0.0,94,0.00,,,0.12,Wunderground v.1.15,2013-08-29 09:47:00,
2013-08-29 03:53:00,68.6,66.8,30.06,NW,304,0.0,0.0,94,0.00,,,0.12,Wunderground v.1.15,2013-08-29 09:53:00,
2013-08-29 03:58:00,68.5,66.7,30.05,NW,304,0.0,0.0,94,0.00,,,0.12,Wunderground v.1.15,2013-08-29 09:58:00,
2013-08-29 04:04:00,68.4,66.6,30.05,NW,304,0.0,0.0,94,0.00,,,0.12,Wunderground v.1.15,2013-08-29 10:04:00,
2013-08-29 04:10:00,68.4,66.6,30.05,NW,304,0.0,0.0,94,0.00,,,0.12,Wunderground v.1.15,2013-08-29 10:10:00,
2013-08-29 04:16:00,68.4,66.6,30.06,NW,304,0.0,0.0,94,0.00,,,0.12,Wunderground v.1.15,2013-08-29 10:16:00,
2013-08-29 04:21:00,68.4,66.6,30.07,NW,304,0.0,0.0,94,0.00,,,0.13,Wunderground v.1.15,2013-08-29 10:21:00,
2013-08-29 04:27:00,68.4,66.6,30.07,NW,304,0.0,0.0,94,0.00,,,0.13,Wunderground v.1.15,2013-08-29 10:27:00,
2013-08-29 04:33:00,68.5,66.7,30.07,NW,304,0.0,0.0,94,0.00,,,0.13,Wunderground v.1.15,2013-08-29 10:33:00,
2013-08-29 04:39:00,68.2,66.4,30.07,ESE,122,1.0,2.0,94,0.00,,,0.13,Wunderground v.1.15,2013-08-29 10:39:00,
2013-08-29 04:45:00,67.7,65.3,30.07,East,92,2.0,10.0,92,0.00,,,0.13,Wunderground v.1.15,2013-08-29 10:45:00,
2013-08-29 04:51:00,67.7,65.3,30.07,ESE,109,1.0,1.0,92,0.00,,,0.13,Wunderground v.1.15,2013-08-29 10:51:00,
2013-08-29 04:57:00,67.6,65.2,30.07,ENE,71,0.0,1.0,92,0.00,,,0.13,Wunderground v.1.15,2013-08-29 10:57:00,
2013-08-29 05:03:00,67.5,65.1,30.08,ESE,118,1.0,1.0,92,0.00,,,0.13,Wunderground v.1.15,2013-08-29 11:03:00,
2013-08-29 05:08:00,67.4,65.0,30.07,East,88,0.0,3.0,92,0.00,,,0.14,Wunderground v.1.15,2013-08-29 11:08:00,
2013-08-29 05:14:00,67.4,65.3,30.07,East,90,0.0,0.0,93,0.00,,,0.14,Wunderground v.1.15,2013-08-29 11:14:00,
2013-08-29 05:20:00,67.3,65.2,30.07,East,89,0.0,0.0,93,0.04,,,0.15,Wunderground v.1.15,2013-08-29 11:20:00,
2013-08-29 05:26:00,67.3,65.2,30.07,East,89,0.0,0.0,93,0.04,,,0.15,Wunderground v.1.15,2013-08-29 11:26:00,
2013-08-29 05:32:00,67.3,65.2,30.07,East,89,0.0,0.0,93,0.04,,,0.15,Wunderground v.1.15,2013-08-29 11:32:00,
2013-08-29 05:38:00,67.3,65.2,30.06,East,89,0.0,0.0,93,0.00,,,0.15,Wunderground v.1.15,2013-08-29 11:38:00,
2013-08-29 05:43:00,67.2,64.8,30.06,East,89,0.0,0.0,92,0.00,,,0.15,Wunderground v.1.15,2013-08-29 11:43:00,
2013-08-29 05:49:00,67.1,64.7,30.05,East,89,0.0,0.0,92,0.00,,,0.15,Wunderground v.1.15,2013-08-29 11:49:00,
2013-08-29 05:55:00,67.0,64.6,30.05,East,89,0.0,0.0,92,0.00,,,0.15,Wunderground v.1.15,2013-08-29 11:55:00,
2013-08-29 06:01:00,67.0,64.6,30.05,East,89,0.0,0.0,92,0.00,,,0.16,Wunderground v.1.15,2013-08-29 12:01:00,
2013-08-29 06:06:00,67.0,64.9,30.05,East,89,0.0,0.0,93,0.00,,,0.16,Wunderground v.1.15,2013-08-29 12:06:00,
2013-08-29 06:12:00,67.1,65.0,30.05,East,89,0.0,0.0,93,0.00,,,0.16,Wunderground v.1.15,2013-08-29 12:12:00,
2013-08-29 06:18:00,67.1,65.0,30.06,East,89,0.0,0.0,93,0.00,,,0.16,Wunderground v.1.15,2013-08-29 12:18:00,
2013-08-29 06:24:00,67.1,65.0,30.06,East,89,0.0,0.0,93,0.00,,,0.16,Wunderground v.1.15,2013-08-29 12:24:00,
2013-08-29 06:29:00,67.1,65.3,30.06,East,89,0.0,0.0,94,0.00,,,0.16,Wunderground v.1.15,2013-08-29 12:29:00,
2013-08-29 06:35:00,67.2,65.4,30.07,SE,139,0.0,0.0,94,0.00,,,0.16,Wunderground v.1.15,2013-08-29 12:35:00,
2013-08-29 06:41:00,67.1,65.3,30.08,SSE,153,1.0,3.0,94,0.00,,,0.16,Wunderground v.1.15,2013-08-29 12:41:00,
2013-08-29 06:47:00,66.9,65.1,30.08,SSE,153,2.0,3.0,94,0.00,,,0.16,Wunderground v.1.15,2013-08-29 12:47:00,
2013-08-29 06:52:00,66.8,65.0,30.08,SSE,153,0.0,1.0,94,0.00,,,0.16,Wunderground v.1.15,2013-08-29 12:52:00,
2013-08-29 06:58:00,66.8,65.0,30.08,SSE,153,0.0,1.0,94,0.00,,,0.16,Wunderground v.1.15,2013-08-29 12:58:00,
2013-08-29 07:04:00,66.7,64.9,30.08,SSE,153,0.0,0.0,94,0.00,,,0.16,Wunderground v.1.15,2013-08-29 13:04:00,
2013-08-29 07:10:00,66.7,64.6,30.09,SSE,153,0.0,0.0,93,0.00,,,0.16,Wunderground v.1.15,2013-08-29 13:10:00,
2013-08-29 07:15:00,66.8,64.7,30.09,SSE,153,0.0,0.0,93,0.00,,,0.16,Wunderground v.1.15,2013-08-29 13:15:00,
2013-08-29 07:21:00,66.9,64.8,30.09,SSE,152,0.0,0.0,93,0.00,,,0.16,Wunderground v.1.15,2013-08-29 13:21:00,
2013-08-29 07:27:00,67.0,64.9,30.10,SSE,151,0.0,0.0,93,0.00,,,0.16,Wunderground v.1.15,2013-08-29 13:27:00,
2013-08-29 07:33:00,67.1,65.0,30.10,SE,139,0.0,0.0,93,0.00,,,0.16,Wunderground v.1.15,2013-08-29 13:33:00,
2013-08-29 07:38:00,67.2,65.1,30.10,SE,139,0.0,0.0,93,0.00,,,0.16,Wunderground v.1.15,2013-08-29 13:38:00,
2013-08-29 07:44:00,67.3,65.2,30.10,SE,139,0.0,0.0,93,0.00,,,0.16,Wunderground v.1.15,2013-08-29 13:44:00,
2013-08-29 07:50:00,67.4,65.3,30.11,SE,139,0.0,0.0,93,0.00,,,0.16,Wunderground v.1.15,2013-08-29 13:50:00,
2013-08-29 07:56:00,67.5,65.4,30.11,SE,139,0.0,0.0,93,0.00,,,0.16,Wunderground v.1.15,2013-08-29 13:56:00,
2013-08-29 08:02:00,67.5,65.4,30.12,SE,139,0.0,0.0,93,0.00,,,0.16,Wunderground v.1.15,2013-08-29 14:02:00,
2013-08-29 08:08:00,67.6,65.5,30.11,SE,139,0.0,0.0,93,0.00,,,0.16,Wunderground v.1.15,2013-08-29 14:08:00,
2013-08-29 08:13:00,67.7,65.6,30.11,SE,139,0.0,0.0,93,0.00,,,0.16,Wunderground v.1.15,2013-08-29 14:13:00,
2013-08-29 08:19:00,67.7,65.6,30.12,SE,139,0.0,0.0,93,0.00,,,0.16,Wunderground v.1.15,2013-08-29 14:19:00,
2013-08-29 08:25:00,67.8,65.7,30.12,SE,139,0.0,0.0,93,0.00,,,0.16,Wunderground v.1.15,2013-08-29 14:25:00,
2013-08-29 08:31:00,68.0,65.9,30.12,SE,139,0.0,0.0,93,0.00,,,0.16,Wunderground v.1.15,2013-08-29 14:31:00,
2013-08-29 08:37:00,68.1,66.0,30.12,SE,139,0.0,0.0,93,0.00,,,0.16,Wunderground v.1.15,2013-08-29 14:37:00,
2013-08-29 08:42:00,68.3,66.2,30.12,SE,139,0.0,0.0,93,0.00,,,0.16,Wunderground v.1.15,2013-08-29 14:42:00,
2013-08-29 08:48:00,68.5,66.1,30.12,SE,139,0.0,0.0,92,0.00,,,0.16,Wunderground v.1.15,2013-08-29 14:48:00,
2013-08-29 08:54:00,68.8,66.4,30.12,SE,139,0.0,0.0,92,0.00,,,0.16,Wunderground v.1.15,2013-08-29 14:54:00,
2013-08-29 08:59:00,69.0,66.3,30.12,SE,139,0.0,0.0,91,0.00,,,0.16,Wunderground v.1.15,2013-08-29 14:59:00,
2013-08-29 09:05:00,69.3,66.2,30.12,SE,139,0.0,0.0,90,0.00,,,0.16,Wunderground v.1.15,2013-08-29 15:05:00,
2013-08-29 09:11:00,69.5,66.1,30.11,SE,139,0.0,0.0,89,0.00,,,0.16,Wunderground v.1.15,2013-08-29 15:11:00,
2013-08-29 09:17:00,69.8,66.7,30.11,SE,139,0.0,0.0,90,0.00,,,0.16,Wunderground v.1.15,2013-08-29 15:17:00,
2013-08-29 09:22:00,69.9,66.5,30.11,SE,139,0.0,0.0,89,0.00,,,0.16,Wunderground v.1.15,2013-08-29 15:22:00,
2013-08-29 09:28:00,70.1,66.7,30.11,SE,139,0.0,0.0,89,0.00,,,0.16,Wunderground v.1.15,2013-08-29 15:28:00,
2013-08-29 09:34:00,70.2,66.8,30.11,SE,139,0.0,0.0,89,0.00,,,0.16,Wunderground v.1.15,2013-08-29 15:34:00,
2013-08-29 09:40:00,70.3,66.6,30.11,SE,139,0.0,0.0,88,0.00,,,0.16,Wunderground v.1.15,2013-08-29 15:40:00,
2013-08-29 09:45:00,70.3,66.6,30.10,SE,126,0.0,0.0,88,0.00,,,0.16,Wunderground v.1.15,2013-08-29 15:45:00,
2013-08-29 09:51:00,70.4,67.3,30.10,ENE,74,0.0,0.0,90,0.00,,,0.16,Wunderground v.1.15,2013-08-29 15:51:00,
2013-08-29 09:57:00,70.4,67.3,30.11,North,10,0.0,3.0,90,0.00,,,0.16,Wunderground v.1.15,2013-08-29 15:57:00,
2013-08-29 10:02:00,70.4,67.0,30.12,North,10,1.0,1.0,89,0.00,,,0.16,Wunderground v.1.15,2013-08-29 16:02:00,
2013-08-29 10:07:00,70.5,67.1,30.12,North,10,1.0,1.0,89,0.00,,,0.16,Wunderground v.1.15,2013-08-29 16:07:00,
2013-08-29 10:13:00,70.6,67.2,30.13,North,10,0.0,0.0,89,0.00,,,0.16,Wunderground v.1.15,2013-08-29 16:13:00,
2013-08-29 10:19:00,70.7,67.0,30.13,North,355,0.0,0.0,88,0.00,,,0.16,Wunderground v.1.15,2013-08-29 16:19:00,
2013-08-29 10:24:00,70.8,67.1,30.13,North,355,0.0,0.0,88,0.00,,,0.16,Wunderground v.1.15,2013-08-29 16:24:00,
2013-08-29 10:30:00,70.8,66.7,30.13,North,355,0.0,0.0,87,0.00,,,0.16,Wunderground v.1.15,2013-08-29 16:30:00,
2013-08-29 10:35:00,71.0,66.9,30.13,North,355,0.0,0.0,87,0.00,,,0.16,Wunderground v.1.15,2013-08-29 16:35:00,
2013-08-29 10:41:00,71.5,67.8,30.13,North,355,0.0,0.0,88,0.00,,,0.16,Wunderground v.1.15,2013-08-29 16:41:00,
2013-08-29 10:47:00,71.7,67.3,30.13,SE,139,0.0,0.0,86,0.00,,,0.16,Wunderground v.1.15,2013-08-29 16:47:00,
2013-08-29 10:53:00,71.9,67.5,30.13,SE,139,0.0,0.0,86,0.00,,,0.16,Wunderground v.1.15,2013-08-29 16:53:00,
2013-08-29 10:59:00,72.3,67.9,30.13,West,262,0.0,0.0,86,0.00,,,0.16,Wunderground v.1.15,2013-08-29 16:59:00,
2013-08-29 11:05:00,72.4,67.6,30.13,West,280,0.0,2.0,85,0.00,,,0.16,Wunderground v.1.15,2013-08-29 17:05:00,
2013-08-29 11:11:00,72.5,67.7,30.13,WNW,295,1.0,3.0,85,0.00,,,0.16,Wunderground v.1.15,2013-08-29 17:11:00,
2013-08-29 11:17:00,72.6,68.2,30.13,WNW,294,1.0,3.0,86,0.00,,,0.16,Wunderground v.1.15,2013-08-29 17:17:00,
2013-08-29 11:23:00,72.6,67.5,30.13,WNW,290,2.0,6.0,84,0.00,,,0.16,Wunderground v.1.15,2013-08-29 17:23:00,
2013-08-29 11:29:00,72.6,67.8,30.13,WNW,290,1.0,6.0,85,0.00,,,0.16,Wunderground v.1.15,2013-08-29 17:29:00,
2013-08-29 11:34:00,72.7,67.9,30.13,WNW,288,1.0,4.0,85,0.00,,,0.16,Wunderground v.1.15,2013-08-29 17:34:00,
2013-08-29 11:40:00,72.7,67.6,30.13,WNW,284,2.0,2.0,84,0.00,,,0.16,Wunderground v.1.15,2013-08-29 17:40:00,
2013-08-29 11:46:00,72.9,67.8,30.13,WNW,284,2.0,3.0,84,0.00,,,0.16,Wunderground v.1.15,2013-08-29 17:46:00,
2013-08-29 11:52:00,73.3,68.2,30.13,WNW,284,1.0,2.0,84,0.00,,,0.16,Wunderground v.1.15,2013-08-29 17:52:00,
2013-08-29 11:58:00,73.6,67.8,30.12,WSW,254,2.0,4.0,82,0.00,,,0.16,Wunderground v.1.15,2013-08-29 17:58:00,
2013-08-29 12:03:00,74.1,67.9,30.13,SW,233,3.0,6.0,81,0.00,,,0.16,Wunderground v.1.15,2013-08-29 18:03:00,
2013-08-29 12:09:00,74.4,67.5,30.13,SW,232,3.0,6.0,79,0.00,,,0.16,Wunderground v.1.15,2013-08-29 18:09:00,
2013-08-29 12:15:00,74.8,67.5,30.13,SW,232,1.0,3.0,78,0.00,,,0.16,Wunderground v.1.15,2013-08-29 18:15:00,
2013-08-29 12:21:00,75.0,67.3,30.13,SW,232,0.0,0.0,77,0.00,,,0.16,Wunderground v.1.15,2013-08-29 18:21:00,
2013-08-29 12:27:00,75.4,67.3,30.13,SSW,204,0.0,0.0,76,0.00,,,0.16,Wunderground v.1.15,2013-08-29 18:27:00,
2013-08-29 12:33:00,76.1,67.2,30.12,SSW,203,1.0,3.0,74,0.00,,,0.16,Wunderground v.1.15,2013-08-29 18:33:00,
2013-08-29 12:38:00,76.9,67.6,30.12,SSW,200,2.0,3.0,73,0.00,,,0.16,Wunderground v.1.15,2013-08-29 18:38:00,
2013-08-29 12:44:00,77.3,67.2,30.12,SSW,200,1.0,2.0,71,0.00,,,0.16,Wunderground v.1.15,2013-08-29 18:44:00,
2013-08-29 12:50:00,77.6,67.0,30.11,SSW,198,0.0,0.0,70,0.00,,,0.16,Wunderground v.1.15,2013-08-29 18:50:00,
2013-08-29 12:56:00,77.5,68.2,30.11,SSE,164,1.0,5.0,73,0.00,,,0.16,Wunderground v.1.15,2013-08-29 18:56:00,
2013-08-29 13:01:00,77.5,66.5,30.11,SE,144,4.0,10.0,69,0.00,,,0.17,Wunderground v.1.15,2013-08-29 19:01:00,
2013-08-29 13:07:00,77.6,67.4,30.11,SE,142,4.0,10.0,71,0.00,,,0.17,Wunderground v.1.15,2013-08-29 19:07:00,
2013-08-29 13:13:00,78.0,67.8,30.11,SE,132,2.0,6.0,71,0.00,,,0.17,Wunderground v.1.15,2013-08-29 19:13:00,
2013-08-29 13:19:00,78.1,67.5,30.11,SSE,156,3.0,6.0,70,0.00,,,0.17,Wunderground v.1.15,2013-08-29 19:19:00,
2013-08-29 13:25:00,78.3,67.7,30.11,SE,129,2.0,3.0,70,0.00,,,0.17,Wunderground v.1.15,2013-08-29 19:25:00,
2013-08-29 13:31:00,78.9,69.1,30.10,East,97,1.0,6.0,72,0.00,,,0.17,Wunderground v.1.15,2013-08-29 19:31:00,
2013-08-29 13:36:00,79.0,67.5,30.10,SE,135,2.0,6.0,68,0.00,,,0.17,Wunderground v.1.15,2013-08-29 19:36:00,
2013-08-29 13:41:00,79.0,68.0,30.10,East,99,1.0,1.0,69,0.00,,,0.17,Wunderground v.1.15,2013-08-29 19:41:00,
2013-08-29 13:47:00,79.0,67.1,30.10,SSE,159,1.0,3.0,67,0.00,,,0.17,Wunderground v.1.15,2013-08-29 19:47:00,
2013-08-29 13:53:00,78.7,66.8,30.10,SSE,163,1.0,1.0,67,0.00,,,0.17,Wunderground v.1.15,2013-08-29 19:53:00,
2013-08-29 13:59:00,78.7,67.2,30.10,SE,140,1.0,5.0,68,0.00,,,0.17,Wunderground v.1.15,2013-08-29 19:59:00,
2013-08-29 14:04:00,78.9,67.4,30.10,SSW,194,1.0,6.0,68,0.00,,,0.17,Wunderground v.1.15,2013-08-29 20:04:00,
2013-08-29 14:10:00,79.2,67.3,30.09,South,183,3.0,5.0,67,0.00,,,0.17,Wunderground v.1.15,2013-08-29 20:10:00,
2013-08-29 14:16:00,79.6,67.7,30.09,SSE,164,4.0,6.0,67,0.00,,,0.17,Wunderground v.1.15,2013-08-29 20:16:00,
2013-08-29 14:22:00,79.4,67.9,30.09,SSE,165,4.0,8.0,68,0.00,,,0.17,Wunderground v.1.15,2013-08-29 20:22:00,
2013-08-29 14:28:00,79.2,67.7,30.09,South,181,4.0,8.0,68,0.00,,,0.17,Wunderground v.1.15,2013-08-29 20:28:00,
2013-08-29 14:34:00,78.9,67.0,30.08,SSE,153,5.0,6.0,67,0.00,,,0.17,Wunderground v.1.15,2013-08-29 20:34:00,
2013-08-29 14:39:00,78.6,67.2,30.08,SSE,152,4.0,6.0,68,0.00,,,0.17,Wunderground v.1.15,2013-08-29 20:39:00,
2013-08-29 14:45:00,78.4,67.0,30.08,SSE,158,2.0,5.0,68,0.00,,,0.17,Wunderground v.1.15,2013-08-29 20:45:00,
2013-08-29 14:51:00,78.5,67.1,30.08,SSE,155,2.0,2.0,68,0.00,,,0.17,Wunderground v.1.15,2013-08-29 20:51:00,
2013-08-29 14:57:00,78.6,67.2,30.07,South,188,0.0,7.0,68,0.00,,,0.17,Wunderground v.1.15,2013-08-29 20:57:00,
2013-08-29 15:03:00,78.7,67.2,30.08,SSE,161,1.0,1.0,68,0.00,,,0.17,Wunderground v.1.15,2013-08-29 21:03:00,
2013-08-29 15:09:00,78.9,67.4,30.07,SSE,148,1.0,5.0,68,0.00,,,0.17,Wunderground v.1.15,2013-08-29 21:09:00,
2013-08-29 15:15:00,79.1,66.8,30.07,SE,127,1.0,1.0,66,0.00,,,0.17,Wunderground v.1.15,2013-08-29 21:15:00,
2013-08-29 15:20:00,79.2,66.4,30.07,SSE,150,1.0,1.0,65,0.00,,,0.17,Wunderground v.1.15,2013-08-29 21:20:00,
2013-08-29 15:26:00,79.4,66.6,30.07,SSE,159,3.0,5.0,65,0.00,,,0.17,Wunderground v.1.15,2013-08-29 21:26:00,
2013-08-29 15:32:00,79.3,66.5,30.07,SSE,158,4.0,4.0,65,0.00,,,0.17,Wunderground v.1.15,2013-08-29 21:32:00,
2013-08-29 15:38:00,79.5,66.3,30.07,SSE,161,2.0,4.0,64,0.00,,,0.17,Wunderground v.1.15,2013-08-29 21:38:00,
2013-08-29 15:44:00,79.8,66.1,30.06,SSE,157,1.0,2.0,63,0.00,,,0.17,Wunderground v.1.15,2013-08-29 21:44:00,
2013-08-29 15:49:00,79.8,66.5,30.06,SSE,157,0.0,2.0,64,0.00,,,0.17,Wunderground v.1.15,2013-08-29 21:49:00,
2013-08-29 15:54:00,79.8,66.1,30.06,SSE,157,0.0,3.0,63,0.00,,,0.17,Wunderground v.1.15,2013-08-29 21:54:00,
2013-08-29 15:59:00,79.8,66.5,30.06,SSE,157,0.0,3.0,64,0.00,,,0.17,Wunderground v.1.15,2013-08-29 21:59:00,
2013-08-29 16:05:00,79.9,66.2,30.06,SE,128,0.0,3.0,63,0.00,,,0.17,Wunderground v.1.15,2013-08-29 22:05:00,
2013-08-29 16:11:00,80.1,66.4,30.06,ESE,108,0.0,0.0,63,0.00,,,0.17,Wunderground v.1.15,2013-08-29 22:11:00,
2013-08-29 16:17:00,80.2,66.0,30.05,ESE,103,0.0,0.0,62,0.00,,,0.17,Wunderground v.1.15,2013-08-29 22:17:00,
2013-08-29 16:23:00,80.1,66.4,30.04,East,98,1.0,1.0,63,0.00,,,0.17,Wunderground v.1.15,2013-08-29 22:23:00,
2013-08-29 16:29:00,80.3,65.6,30.05,ESE,117,1.0,2.0,61,0.00,,,0.17,Wunderground v.1.15,2013-08-29 22:29:00,
2013-08-29 16:35:00,80.4,65.7,30.05,East,96,1.0,1.0,61,0.00,,,0.17,Wunderground v.1.15,2013-08-29 22:35:00,
2013-08-29 16:41:00,80.8,66.1,30.05,ESE,106,0.0,0.0,61,0.00,,,0.17,Wunderground v.1.15,2013-08-29 22:41:00,
2013-08-29 16:47:00,81.0,66.8,30.05,ESE,110,1.0,4.0,62,0.00,,,0.17,Wunderground v.1.15,2013-08-29 22:47:00,
2013-08-29 16:53:00,81.0,66.3,30.05,ESE,111,1.0,3.0,61,0.00,,,0.17,Wunderground v.1.15,2013-08-29 22:53:00,
2013-08-29 16:59:00,80.9,67.1,30.04,ESE,107,1.0,3.0,63,0.00,,,0.17,Wunderground v.1.15,2013-08-29 22:59:00,
2013-08-29 17:05:00,81.0,66.8,30.04,ESE,111,0.0,1.0,62,0.00,,,0.17,Wunderground v.1.15,2013-08-29 23:05:00,
2013-08-29 17:11:00,81.4,66.2,30.04,ESE,116,0.0,0.0,60,0.00,,,0.17,Wunderground v.1.15,2013-08-29 23:11:00,
2013-08-29 17:17:00,81.7,66.0,30.04,SE,136,1.0,4.0,59,0.00,,,0.17,Wunderground v.1.15,2013-08-29 23:17:00,
2013-08-29 17:23:00,81.7,66.0,30.04,SE,130,2.0,2.0,59,0.00,,,0.17,Wunderground v.1.15,2013-08-29 23:23:00,
2013-08-29 17:29:00,81.8,66.6,30.04,ESE,109,1.0,5.0,60,0.00,,,0.17,Wunderground v.1.15,2013-08-29 23:29:00,
2013-08-29 17:35:00,81.6,66.4,30.04,ESE,109,0.0,0.0,60,0.00,,,0.17,Wunderground v.1.15,2013-08-29 23:35:00,
2013-08-29 17:40:00,81.4,66.2,30.04,ESE,109,0.0,0.0,60,0.00,,,0.17,Wunderground v.1.15,2013-08-29 23:40:00,
2013-08-29 17:46:00,81.2,66.5,30.04,ESE,109,0.0,0.0,61,0.00,,,0.17,Wunderground v.1.15,2013-08-29 23:46:00,
2013-08-29 17:52:00,81.0,66.3,30.04,ESE,109,0.0,0.0,61,0.00,,,0.17,Wunderground v.1.15,2013-08-29 23:52:00,
2013-08-29 17:58:00,80.9,66.2,30.04,ESE,109,0.0,0.0,61,0.00,,,0.17,Wunderground v.1.15,2013-08-29 23:58:00,
2013-08-29 18:03:00,80.7,66.5,30.04,ESE,109,0.0,0.0,62,0.00,,,0.17,Wunderground v.1.15,2013-08-30 00:03:00,
2013-08-29 18:09:00,80.4,67.1,30.04,ESE,109,0.0,0.0,64,0.00,,,0.17,Wunderground v.1.15,2013-08-30 00:09:00,
2013-08-29 18:15:00,80.1,66.8,30.04,ESE,109,0.0,0.0,64,0.00,,,0.17,Wunderground v.1.15,2013-08-30 00:15:00,
2013-08-29 18:21:00,79.8,66.5,30.05,ESE,109,0.0,0.0,64,0.00,,,0.17,Wunderground v.1.15,2013-08-30 00:21:00,
2013-08-29 18:26:00,79.7,66.9,30.04,ESE,109,0.0,0.0,65,0.00,,,0.17,Wunderground v.1.15,2013-08-30 00:26:00,
2013-08-29 18:31:00,79.5,66.7,30.04,ESE,109,0.0,0.0,65,0.00,,,0.17,Wunderground v.1.15,2013-08-30 00:31:00,
2013-08-29 18:37:00,79.3,66.5,30.04,ESE,109,0.0,0.0,65,0.00,,,0.17,Wunderground v.1.15,2013-08-30 00:37:00,
2013-08-29 18:43:00,79.1,66.3,30.04,ESE,109,0.0,0.0,65,0.00,,,0.17,Wunderground v.1.15,2013-08-30 00:43:00,
2013-08-29 18:49:00,79.0,66.2,30.04,ESE,109,0.0,0.0,65,0.00,,,0.17,Wunderground v.1.15,2013-08-30 00:49:00,
2013-08-29 18:55:00,78.9,66.1,30.04,ESE,109,0.0,0.0,65,0.00,,,0.17,Wunderground v.1.15,2013-08-30 00:55:00,
2013-08-29 19:00:00,78.8,66.0,30.04,ESE,109,0.0,0.0,65,0.00,,,0.17,Wunderground v.1.15,2013-08-30 01:00:00,
2013-08-29 19:06:00,78.7,66.4,30.04,ESE,109,0.0,0.0,66,0.00,,,0.17,Wunderground v.1.15,2013-08-30 01:06:00,
2013-08-29 19:12:00,78.5,66.2,30.04,ESE,109,0.0,0.0,66,0.00,,,0.17,Wunderground v.1.15,2013-08-30 01:12:00,
2013-08-29 19:18:00,78.4,66.5,30.04,ESE,109,0.0,0.0,67,0.00,,,0.17,Wunderground v.1.15,2013-08-30 01:18:00,
2013-08-29 19:24:00,78.2,67.6,30.04,ESE,109,0.0,0.0,70,0.00,,,0.17,Wunderground v.1.15,2013-08-30 01:24:00,
2013-08-29 19:30:00,77.8,67.2,30.04,ESE,109,0.0,0.0,70,0.00,,,0.17,Wunderground v.1.15,2013-08-30 01:30:00,
2013-08-29 19:36:00,77.4,66.8,30.04,ESE,109,0.0,0.0,70,0.00,,,0.17,Wunderground v.1.15,2013-08-30 01:36:00,
2013-08-29 19:42:00,77.1,67.0,30.04,ESE,109,0.0,0.0,71,0.00,,,0.17,Wunderground v.1.15,2013-08-30 01:42:00,
2013-08-29 19:48:00,76.8,66.3,30.04,ESE,109,0.0,0.0,70,0.00,,,0.17,Wunderground v.1.15,2013-08-30 01:48:00,
2013-08-29 19:53:00,76.6,66.5,30.04,ESE,109,0.0,0.0,71,0.00,,,0.17,Wunderground v.1.15,2013-08-30 01:53:00,
2013-08-29 19:59:00,76.5,66.8,30.05,ESE,109,0.0,0.0,72,0.00,,,0.17,Wunderground v.1.15,2013-08-30 01:59:00,
2013-08-29 20:05:00,76.2,66.9,30.05,ESE,109,0.0,0.0,73,0.00,,,0.17,Wunderground v.1.15,2013-08-30 02:05:00,
2013-08-29 20:11:00,76.0,67.1,30.05,ESE,109,0.0,0.0,74,0.00,,,0.17,Wunderground v.1.15,2013-08-30 02:11:00,
2013-08-29 20:17:00,75.6,67.1,30.05,ESE,109,0.0,0.0,75,0.00,,,0.17,Wunderground v.1.15,2013-08-30 02:17:00,
2013-08-29 20:22:00,75.5,67.0,30.05,ESE,109,0.0,0.0,75,0.00,,,0.17,Wunderground v.1.15,2013-08-30 02:22:00,
2013-08-29 20:28:00,75.2,67.9,30.05,ESE,109,0.0,0.0,78,0.00,,,0.17,Wunderground v.1.15,2013-08-30 02:28:00,
2013-08-29 20:34:00,74.8,67.8,30.05,ESE,109,0.0,0.0,79,0.00,,,0.17,Wunderground v.1.15,2013-08-30 02:34:00,
2013-08-29 20:40:00,74.4,67.8,30.05,ESE,109,0.0,0.0,80,0.00,,,0.17,Wunderground v.1.15,2013-08-30 02:40:00,
2013-08-29 20:45:00,74.2,68.0,30.05,ESE,109,0.0,0.0,81,0.00,,,0.17,Wunderground v.1.15,2013-08-30 02:45:00,
2013-08-29 20:50:00,73.9,68.1,30.05,ESE,109,0.0,0.0,82,0.00,,,0.17,Wunderground v.1.15,2013-08-30 02:50:00,
2013-08-29 20:56:00,73.6,68.1,30.06,ESE,109,0.0,0.0,83,0.00,,,0.17,Wunderground v.1.15,2013-08-30 02:56:00,
2013-08-29 21:02:00,73.3,68.2,30.06,ESE,109,0.0,0.0,84,0.00,,,0.17,Wunderground v.1.15,2013-08-30 03:02:00,
2013-08-29 21:08:00,73.0,68.2,30.06,ESE,109,0.0,0.0,85,0.00,,,0.17,Wunderground v.1.15,2013-08-30 03:08:00,
2013-08-29 21:14:00,72.6,67.8,30.06,ESE,109,0.0,0.0,85,0.00,,,0.17,Wunderground v.1.15,2013-08-30 03:14:00,
2013-08-29 21:20:00,72.4,68.3,30.06,ESE,109,0.0,0.0,87,0.00,,,0.17,Wunderground v.1.15,2013-08-30 03:20:00,
2013-08-29 21:26:00,72.1,68.0,30.06,ESE,109,0.0,0.0,87,0.00,,,0.17,Wunderground v.1.15,2013-08-30 03:26:00,
2013-08-29 21:32:00,71.9,68.2,30.07,ESE,109,0.0,0.0,88,0.00,,,0.17,Wunderground v.1.15,2013-08-30 03:32:00,
2013-08-29 21:38:00,71.8,68.4,30.07,ESE,109,0.0,0.0,89,0.00,,,0.17,Wunderground v.1.15,2013-08-30 03:38:00,
2013-08-29 21:44:00,71.7,68.3,30.06,ESE,109,0.0,0.0,89,0.00,,,0.17,Wunderground v.1.15,2013-08-30 03:44:00,
2013-08-29 21:49:00,71.6,68.2,30.07,ESE,109,0.0,0.0,89,0.00,,,0.17,Wunderground v.1.15,2013-08-30 03:49:00,
2013-08-29 21:55:00,71.5,68.1,30.07,ESE,109,0.0,0.0,89,0.00,,,0.17,Wunderground v.1.15,2013-08-30 03:55:00,
2013-08-29 22:01:00,71.3,68.2,30.07,ESE,109,0.0,0.0,90,0.00,,,0.17,Wunderground v.1.15,2013-08-30 04:01:00,
2013-08-29 22:02:00,71.3,68.2,30.07,ESE,109,0.0,0.0,90,0.00,,,0.17,Wunderground v.1.15,2013-08-30 04:02:00,
2013-08-29 22:03:00,71.3,68.2,30.07,ESE,108,0.0,0.0,90,0.00,,,0.17,Wunderground v.1.15,2013-08-30 04:03:00,
2013-08-29 22:04:00,71.2,68.1,30.07,ESE,109,0.0,0.0,90,0.00,,,0.17,Wunderground v.1.15,2013-08-30 04:04:00,
2013-08-29 22:10:00,71.0,67.9,30.07,ESE,109,0.0,0.0,90,0.00,,,0.17,Wunderground v.1.15,2013-08-30 04:10:00,
2013-08-29 22:13:00,70.9,67.8,30.07,ESE,109,0.0,0.0,90,0.00,,,0.17,Wunderground v.1.15,2013-08-30 04:13:00,
2013-08-29 22:19:00,70.7,67.6,30.07,ESE,109,0.0,0.0,90,0.00,,,0.17,Wunderground v.1.15,2013-08-30 04:19:00,
2013-08-29 22:25:00,70.5,67.7,30.07,ESE,109,0.0,0.0,91,0.00,,,0.17,Wunderground v.1.15,2013-08-30 04:25:00,
2013-08-29 22:30:00,70.3,67.5,30.07,ESE,109,0.0,0.0,91,0.00,,,0.17,Wunderground v.1.15,2013-08-30 04:30:00,
2013-08-29 22:35:00,70.2,67.4,30.07,ESE,109,0.0,0.0,91,0.00,,,0.17,Wunderground v.1.15,2013-08-30 04:35:00,
2013-08-29 22:41:00,70.1,67.3,30.07,ESE,109,0.0,0.0,91,0.00,,,0.17,Wunderground v.1.15,2013-08-30 04:41:00,
2013-08-29 22:47:00,70.0,67.6,30.07,ESE,109,0.0,0.0,92,0.00,,,0.17,Wunderground v.1.15,2013-08-30 04:47:00,
2013-08-29 22:53:00,69.9,67.5,30.07,ESE,108,0.0,0.0,92,0.00,,,0.17,Wunderground v.1.15,2013-08-30 04:53:00,
2013-08-29 22:59:00,69.8,67.4,30.07,ESE,109,0.0,0.0,92,0.00,,,0.17,Wunderground v.1.15,2013-08-30 04:59:00,
2013-08-29 23:04:00,69.7,67.3,30.07,ESE,109,0.0,0.0,92,0.00,,,0.17,Wunderground v.1.15,2013-08-30 05:04:00,
2013-08-29 23:10:00,69.6,67.2,30.07,ESE,109,0.0,0.0,92,0.00,,,0.17,Wunderground v.1.15,2013-08-30 05:10:00,
2013-08-29 23:15:00,69.5,67.1,30.07,ESE,108,0.0,0.0,92,0.00,,,0.17,Wunderground v.1.15,2013-08-30 05:15:00,
2013-08-29 23:21:00,69.4,67.0,30.07,ESE,108,0.0,0.0,92,0.00,,,0.17,Wunderground v.1.15,2013-08-30 05:21:00,
2013-08-29 23:27:00,69.3,66.9,30.07,ESE,109,0.0,0.0,92,0.00,,,0.17,Wunderground v.1.15,2013-08-30 05:27:00,
2013-08-29 23:33:00,69.3,67.2,30.07,ESE,109,0.0,0.0,93,0.00,,,0.17,Wunderground v.1.15,2013-08-30 05:33:00,
2013-08-29 23:39:00,69.2,66.8,30.07,ESE,109,0.0,0.0,92,0.00,,,0.17,Wunderground v.1.15,2013-08-30 05:39:00,
2013-08-29 23:44:00,69.1,66.7,30.07,ESE,109,0.0,0.0,92,0.00,,,0.17,Wunderground v.1.15,2013-08-30 05:44:00,
2013-08-29 23:50:00,69.1,66.7,30.07,ESE,109,0.0,0.0,92,0.00,,,0.17,Wunderground v.1.15,2013-08-30 05:50:00,
2013-08-29 23:56:00,68.9,66.8,30.07,ESE,109,0.0,0.0,93,0.00,,,0.17,Wunderground v.1.15,2013-08-30 05:56:00,